Time;durP1;ratioP1;P1;durP2;ratioP2;P2;SDS_P1;SDS_P2;PMS_P1;PMS_P2;Temp;Humidity;BMP_temperature;BMP_pressure;BME280_temperature;BME280_humidity;BME280_pressure;Samples;Min_cycle;Max_cycle;Signal;HPM_P1;HPM_P2
2021/10/17 00:00:56;;;;;;;4.10;2.85;;;;;;;24.00;43.01;100884.22;4918685;29;20111;-78
2021/10/17 00:03:22;;;;;;;11.75;3.30;;;;;;;24.23;42.69;100881.75;4918562;29;20039;-78
2021/10/17 00:05:47;;;;;;;6.45;3.35;;;;;;;24.24;42.75;100872.19;4918564;29;20036;-79
2021/10/17 00:08:13;;;;;;;4.85;3.10;;;;;;;24.02;42.97;100885.38;4918564;29;20032;-78
2021/10/17 00:10:38;;;;;;;5.22;2.80;;;;;;;24.21;43.03;100873.00;4918452;29;20499;-78
2021/10/17 00:13:08;;;;;;;4.95;3.50;;;;;;;24.13;43.00;100870.63;4918043;29;20032;-77
2021/10/17 00:15:34;;;;;;;;;;;;;;;24.09;43.46;100881.78;4918898;29;20426;-78
2021/10/17 00:18:03;;;;;;;7.40;3.47;;;;;;;24.04;43.38;100882.22;4918321;29;19942;-78
2021/10/17 00:20:29;;;;;;;8.95;4.97;;;;;;;24.05;43.44;100872.66;4918323;29;20069;-78
2021/10/17 00:22:55;;;;;;;5.03;3.13;;;;;;;24.09;43.10;100867.84;4918536;29;20424;-78
2021/10/17 00:25:21;;;;;;;6.13;2.60;;;;;;;24.14;43.16;100864.66;4918084;29;20039;-78
2021/10/17 00:27:47;;;;;;;6.47;2.90;;;;;;;24.00;43.90;100850.72;4918079;29;20036;-79
2021/10/17 00:30:13;;;;;;;4.70;2.88;;;;;;;24.07;43.65;100861.88;4918095;29;20028;-78
2021/10/17 00:32:39;;;;;;;4.07;2.63;;;;;;;24.04;43.63;100873.84;4918004;29;20036;-78
2021/10/17 00:35:07;;;;;;;4.40;2.72;;;;;;;24.23;43.43;100859.44;4918069;29;20130;-78
2021/10/17 00:37:34;;;;;;;4.40;2.97;;;;;;;24.20;43.63;100865.84;4918093;29;20028;-83
2021/10/17 00:40:02;;;;;;;4.47;2.55;;;;;;;24.20;43.45;100867.81;4918160;29;20024;-78
2021/10/17 00:42:28;;;;;;;3.25;2.53;;;;;;;24.30;43.53;100865.00;4917828;29;20107;-78
2021/10/17 00:44:55;;;;;;;5.20;3.10;;;;;;;24.16;43.56;100862.25;4917762;29;20571;-78
2021/10/17 00:47:21;;;;;;;5.13;2.60;;;;;;;24.28;43.09;100861.81;4917815;29;20111;-78
2021/10/17 00:49:47;;;;;;;3.63;2.55;;;;;;;24.15;43.57;100865.44;4917703;29;20107;-78
2021/10/17 00:52:13;;;;;;;4.32;2.28;;;;;;;24.25;43.26;100859.03;4917758;29;20067;-78
2021/10/17 00:54:42;;;;;;;4.20;2.83;;;;;;;24.28;43.41;100869.41;4917682;29;20063;-78
2021/10/17 00:57:08;;;;;;;4.18;2.53;;;;;;;24.31;43.24;100869.38;4917392;29;20032;-78
2021/10/17 00:59:33;;;;;;;4.15;2.47;;;;;;;24.41;43.21;100875.34;4917634;29;20020;-78
2021/10/17 01:01:59;;;;;;;3.95;2.30;;;;;;;24.46;43.12;100866.56;4917496;29;20501;-78
2021/10/17 01:04:24;;;;;;;2.75;2.05;;;;;;;24.46;43.34;100867.34;4917483;29;20591;-78
2021/10/17 01:06:50;;;;;;;4.55;2.50;;;;;;;24.45;43.22;100870.56;4917472;29;20399;-79
2021/10/17 01:09:16;;;;;;;5.25;2.47;;;;;;;24.45;43.22;100864.97;4917401;29;20111;-78
2021/10/17 01:11:44;;;;;;;4.85;2.50;;;;;;;24.39;43.63;100858.22;4917339;29;20028;-78
2021/10/17 01:14:18;;;;;;;5.72;2.65;;;;;;;24.27;44.06;100863.03;4917380;29;20055;-78
2021/10/17 01:16:45;;;;;;;3.55;2.10;;;;;;;24.54;43.21;100866.13;4917299;29;20498;-78
2021/10/17 01:19:11;;;;;;;4.78;2.47;;;;;;;24.57;43.29;100858.97;4917320;29;20032;-78
2021/10/17 01:21:38;;;;;;;4.13;2.25;;;;;;;24.33;43.91;100853.06;4917116;29;20040;-78
2021/10/17 01:24:05;;;;;;;5.18;2.25;;;;;;;24.62;43.18;100848.13;4917128;29;20028;-78
2021/10/17 01:26:30;;;;;;;4.07;2.50;;;;;;;24.63;43.41;100849.72;4916340;29;20387;-78
2021/10/17 01:28:56;;;;;;;3.05;2.10;;;;;;;24.63;43.03;100846.13;4917150;29;20032;-78
2021/10/17 01:31:38;;;;;;;2.72;2.10;;;;;;;24.57;43.53;100848.56;4917073;29;20028;-78
2021/10/17 01:34:06;;;;;;;3.47;2.10;;;;;;;24.67;43.09;100841.34;4917048;29;20032;-78
2021/10/17 01:36:33;;;;;;;3.22;2.05;;;;;;;24.70;43.34;100848.09;4916847;29;20032;-78
2021/10/17 01:38:59;;;;;;;2.15;1.70;;;;;;;24.67;42.96;100844.13;4916928;29;20035;-78
2021/10/17 01:41:25;;;;;;;3.13;1.98;;;;;;;24.68;43.20;100837.34;4916866;29;20024;-78
2021/10/17 01:43:51;;;;;;;3.28;2.38;;;;;;;24.48;44.04;100836.22;4916841;29;20364;-84
2021/10/17 01:46:17;;;;;;;7.63;2.42;;;;;;;24.65;43.56;100840.16;4916791;29;20061;-83
2021/10/17 01:48:43;;;;;;;3.65;2.13;;;;;;;24.72;43.26;100834.53;4916810;29;20028;-78
2021/10/17 01:51:09;;;;;;;3.97;2.47;;;;;;;24.79;42.87;100835.28;4916657;29;20059;-78
2021/10/17 01:53:34;;;;;;;3.00;2.17;;;;;;;24.77;42.99;100837.69;4916756;29;20040;-78
2021/10/17 01:56:01;;;;;;;3.53;1.92;;;;;;;24.76;43.23;100827.72;4916676;29;20032;-79
2021/10/17 01:58:27;;;;;;;2.85;1.95;;;;;;;24.69;43.43;100826.94;4916425;29;20056;-78
2021/10/17 02:00:53;;;;;;;5.13;2.80;;;;;;;24.76;43.48;100819.31;4916607;29;20152;-78
2021/10/17 02:03:20;;;;;;;5.85;2.70;;;;;;;24.82;43.17;100814.91;4916561;29;20028;-79
2021/10/17 02:05:46;;;;;;;3.47;2.33;;;;;;;24.73;43.38;100825.75;4916489;29;20072;-77
2021/10/17 02:08:11;;;;;;;5.72;2.03;;;;;;;24.71;43.71;100822.56;4916477;29;20067;-78
2021/10/17 02:10:37;;;;;;;2.80;1.90;;;;;;;24.73;43.61;100806.19;4916637;29;20032;-78
2021/10/17 02:13:03;;;;;;;9.60;3.17;;;;;;;24.65;43.94;100801.84;4916556;29;20047;-79
2021/10/17 02:15:29;;;;;;;3.55;2.22;;;;;;;24.60;43.72;100805.06;4916452;29;20028;-78
2021/10/17 02:17:54;;;;;;;4.78;2.70;;;;;;;24.46;44.43;100799.53;4916407;29;20372;-77
2021/10/17 02:20:20;;;;;;;11.18;3.30;;;;;;;24.59;43.96;100800.69;4916499;29;20032;-78
2021/10/17 02:22:46;;;;;;;5.40;3.38;;;;;;;24.46;43.91;100800.34;4916346;29;20032;-78
2021/10/17 02:25:11;;;;;;;3.35;2.33;;;;;;;24.42;44.12;100790.41;4916241;29;20547;-78
2021/10/17 02:27:37;;;;;;;3.05;2.53;;;;;;;24.38;44.09;100784.81;4916380;29;20036;-78
2021/10/17 02:30:05;;;;;;;3.47;2.60;;;;;;;24.41;44.33;100786.00;4916288;29;20492;-78
2021/10/17 02:32:33;;;;;;;4.60;2.03;;;;;;;24.43;44.19;100789.19;4914969;29;20039;-77
2021/10/17 02:34:59;;;;;;;5.95;2.10;;;;;;;24.45;43.88;100787.56;4916283;29;20076;-78
2021/10/17 02:37:25;;;;;;;2.83;2.40;;;;;;;24.43;44.04;100783.59;4918585;29;20024;-78
2021/10/17 02:39:50;;;;;;;4.80;2.53;;;;;;;24.31;44.65;100782.03;4920192;29;20530;-78
2021/10/17 02:42:16;;;;;;;4.45;2.40;;;;;;;24.41;44.19;100780.41;4920082;29;20064;-78
2021/10/17 02:44:41;;;;;;;3.72;2.30;;;;;;;24.39;44.56;100785.59;4919094;29;20032;-78
2021/10/17 02:47:07;;;;;;;5.40;2.60;;;;;;;24.40;44.17;100784.41;4918263;29;20043;-78
2021/10/17 02:49:33;;;;;;;4.40;2.53;;;;;;;24.35;44.72;100777.25;4919851;29;20028;-78
2021/10/17 02:51:58;;;;;;;4.63;2.55;;;;;;;24.43;44.21;100775.22;4919922;29;20099;-83
2021/10/17 02:54:24;;;;;;;4.18;2.05;;;;;;;24.34;44.48;100793.22;4919970;29;20510;-78
2021/10/17 02:56:50;;;;;;;7.18;2.88;;;;;;;24.39;44.29;100782.81;4919743;29;20039;-78
2021/10/17 02:59:15;;;;;;;4.60;2.38;;;;;;;24.41;44.42;100780.41;4919585;29;20055;-78
2021/10/17 03:01:41;;;;;;;3.78;1.77;;;;;;;24.44;44.60;100783.19;4919727;29;20074;-78
2021/10/17 03:04:07;;;;;;;3.70;2.20;;;;;;;24.50;44.39;100780.78;4919589;29;20032;-78
2021/10/17 03:06:32;;;;;;;5.10;2.88;;;;;;;24.39;44.82;100772.44;4919754;29;20028;-78
2021/10/17 03:08:58;;;;;;;5.25;2.00;;;;;;;24.55;44.24;100777.53;4919647;29;20476;-78
2021/10/17 03:11:24;;;;;;;5.70;2.28;;;;;;;24.61;44.45;100773.13;4919539;29;20478;-78
2021/10/17 03:13:49;;;;;;;5.05;2.63;;;;;;;24.66;44.50;100769.91;4919567;29;20032;-78
2021/10/17 03:16:15;;;;;;;2.83;1.98;;;;;;;24.53;44.82;100761.19;4919482;29;20107;-78
2021/10/17 03:18:40;;;;;;;3.30;2.38;;;;;;;24.70;44.23;100770.66;4919389;29;20512;-84
2021/10/17 03:21:06;;;;;;;3.58;1.80;;;;;;;24.68;44.52;100767.50;4919332;29;20031;-78
2021/10/17 03:23:31;;;;;;;7.00;2.40;;;;;;;24.70;44.23;100761.50;4919289;29;20028;-78
2021/10/17 03:25:57;;;;;;;4.05;1.98;;;;;;;24.70;44.19;100759.50;4919263;29;20036;-78
2021/10/17 03:28:23;;;;;;;5.03;2.40;;;;;;;24.63;44.48;100756.75;4919234;29;20024;-78
2021/10/17 03:30:54;;;;;;;5.30;2.50;;;;;;;24.69;44.15;100751.53;4919166;29;20034;-79
2021/10/17 03:33:20;;;;;;;4.18;2.08;;;;;;;24.64;44.10;100747.19;4919277;29;20164;-78
2021/10/17 03:35:46;;;;;;;5.18;2.33;;;;;;;24.66;44.23;100757.94;4919135;29;20031;-78
2021/10/17 03:38:11;;;;;;;3.20;1.77;;;;;;;24.65;44.61;100748.75;4919111;29;20028;-78
2021/10/17 03:40:37;;;;;;;6.25;1.90;;;;;;;24.68;44.47;100738.75;4919157;29;20024;-78
2021/10/17 03:43:03;;;;;;;2.88;1.67;;;;;;;24.65;44.66;100743.19;4918922;29;20509;-78
2021/10/17 03:45:30;;;;;;;3.78;1.95;;;;;;;24.72;44.35;100742.34;4918904;29;20046;-78
2021/10/17 03:47:56;;;;;;;3.65;2.30;;;;;;;24.68;44.78;100733.97;4918080;29;20428;-78
2021/10/17 03:50:23;;;;;;;4.22;1.85;;;;;;;24.51;44.97;100746.06;4918865;29;20028;-78
2021/10/17 03:52:48;;;;;;;3.72;2.10;;;;;;;24.66;44.87;100741.97;4918790;29;20107;-79
2021/10/17 03:55:14;;;;;;;2.38;1.80;;;;;;;24.69;44.83;100735.56;4917542;29;20106;-78
2021/10/17 03:57:40;;;;;;;3.67;1.92;;;;;;;24.74;44.52;100737.13;4918573;29;20127;-78
2021/10/17 04:00:06;;;;;;;3.15;2.15;;;;;;;24.69;44.71;100735.56;4918706;29;20483;-80
2021/10/17 04:02:34;;;;;;;4.30;2.00;;;;;;;24.75;44.82;100728.31;4918669;29;20107;-78
2021/10/17 04:05:00;;;;;;;4.65;1.90;;;;;;;24.72;45.13;100731.97;4918517;29;20059;-78
2021/10/17 04:07:25;;;;;;;3.70;1.48;;;;;;;24.79;44.86;100733.91;4918509;29;20044;-78
2021/10/17 04:09:51;;;;;;;3.40;1.88;;;;;;;24.83;44.90;100731.88;4918513;29;20035;-78
2021/10/17 04:12:16;;;;;;;3.13;1.70;;;;;;;24.87;44.73;100741.81;4918460;29;20460;-78
2021/10/17 04:14:42;;;;;;;4.80;1.60;;;;;;;24.91;44.33;100737.00;4918405;29;20028;-83
2021/10/17 04:17:07;;;;;;;4.03;2.00;;;;;;;24.94;44.50;100728.97;4917076;29;20020;-77
2021/10/17 04:19:33;;;;;;;1.98;1.55;;;;;;;24.94;44.61;100724.22;4918441;29;20067;-78
2021/10/17 04:21:59;;;;;;;3.60;1.55;;;;;;;24.95;44.78;100730.59;4918306;29;20037;-78
2021/10/17 04:24:24;;;;;;;3.35;1.60;;;;;;;24.84;45.21;100722.28;4918180;29;20032;-78
2021/10/17 04:26:50;;;;;;;2.00;1.52;;;;;;;24.97;44.71;100730.97;4918233;29;20031;-78
2021/10/17 04:29:16;;;;;;;4.18;1.50;;;;;;;25.07;44.79;100730.09;4918192;29;20028;-78
2021/10/17 04:31:41;;;;;;;2.97;1.40;;;;;;;25.11;44.64;100730.88;4918128;29;20033;-78
2021/10/17 04:34:07;;;;;;;4.43;1.55;;;;;;;25.09;44.47;100727.69;4918150;29;20107;-78
2021/10/17 04:36:33;;;;;;;3.75;1.70;;;;;;;25.08;44.78;100726.09;4917953;29;20028;-78
2021/10/17 04:38:59;;;;;;;2.45;1.42;;;;;;;25.14;44.60;100727.25;4917950;29;20028;-83
2021/10/17 04:41:24;;;;;;;1.90;1.55;;;;;;;25.12;44.38;100729.66;4917970;29;20024;-78
2021/10/17 04:43:50;;;;;;;3.67;1.35;;;;;;;25.09;44.70;100733.28;4917797;29;20028;-78
2021/10/17 04:46:16;;;;;;;3.22;1.90;;;;;;;25.14;44.35;100735.63;4917780;29;20360;-78
2021/10/17 04:48:41;;;;;;;2.40;1.35;;;;;;;25.19;44.72;100743.59;4917779;29;20052;-78
2021/10/17 04:51:07;;;;;;;3.88;1.60;;;;;;;25.22;44.75;100739.97;4917726;29;20032;-81
2021/10/17 04:53:33;;;;;;;1.73;1.30;;;;;;;25.17;44.65;100734.84;4917725;29;20028;-84
2021/10/17 04:55:58;;;;;;;3.20;1.40;;;;;;;25.11;44.63;100734.47;4917639;29;20040;-78
2021/10/17 04:58:26;;;;;;;8.02;2.00;;;;;;;25.21;44.41;100737.59;4917344;29;20052;-78
2021/10/17 05:00:52;;;;;;;3.35;1.75;;;;;;;25.19;44.38;100735.19;4917588;29;20380;-78
2021/10/17 05:03:18;;;;;;;3.78;1.50;;;;;;;25.16;44.33;100736.00;4916217;29;20036;-79
2021/10/17 05:05:43;;;;;;;3.08;1.42;;;;;;;25.21;44.25;100730.00;4917503;29;20035;-78
2021/10/17 05:08:09;;;;;;;2.22;1.30;;;;;;;25.17;44.54;100726.44;4917461;29;20028;-78
2021/10/17 05:10:35;;;;;;;2.90;1.40;;;;;;;25.20;44.31;100736.00;4917514;29;20032;-78
2021/10/17 05:13:00;;;;;;;3.50;1.60;;;;;;;25.26;44.35;100743.53;4917379;29;20024;-78
2021/10/17 05:15:26;;;;;;;2.88;1.58;;;;;;;25.22;44.83;100733.56;4917384;29;20095;-78
2021/10/17 05:17:52;;;;;;;3.20;1.45;;;;;;;25.25;44.82;100732.75;4917287;29;20106;-82
2021/10/17 05:20:18;;;;;;;3.47;1.13;;;;;;;25.26;44.51;100735.16;4917400;29;20503;-78
2021/10/17 05:22:44;;;;;;;1.95;1.20;;;;;;;25.24;44.49;100737.56;4917193;29;20039;-78
2021/10/17 05:25:11;;;;;;;1.63;1.38;;;;;;;25.21;44.78;100727.19;4917125;29;20028;-78
2021/10/17 05:27:37;;;;;;;2.17;1.23;;;;;;;25.23;44.89;100741.53;4917219;29;20103;-78
2021/10/17 05:30:03;;;;;;;2.58;1.70;;;;;;;25.26;44.74;100737.94;4917055;29;20020;-78
2021/10/17 05:32:29;;;;;;;3.95;1.50;;;;;;;25.27;44.60;100739.53;4917110;29;20101;-78
2021/10/17 05:34:54;;;;;;;4.15;1.80;;;;;;;25.23;44.92;100744.34;4917017;29;20032;-78
2021/10/17 05:37:20;;;;;;;3.67;1.30;;;;;;;25.23;44.70;100751.94;4916950;29;20439;-78
2021/10/17 05:39:45;;;;;;;1.10;1.00;;;;;;;25.28;44.83;100752.28;4916955;29;20024;-78
2021/10/17 05:42:11;;;;;;;2.75;1.70;;;;;;;25.28;44.84;100746.69;4916868;29;20390;-78
2021/10/17 05:44:37;;;;;;;1.85;1.20;;;;;;;25.33;44.51;100757.44;4916994;29;20487;-78
2021/10/17 05:47:02;;;;;;;2.10;1.20;;;;;;;25.32;44.75;100758.66;4916766;29;20096;-78
2021/10/17 05:49:28;;;;;;;2.97;1.30;;;;;;;25.33;44.76;100756.66;4916794;29;20025;-78
2021/10/17 05:51:53;;;;;;;2.70;1.52;;;;;;;25.32;44.94;100755.06;4916679;29;20032;-78
2021/10/17 05:54:19;;;;;;;2.95;1.25;;;;;;;25.38;44.51;100751.38;4916720;29;20062;-78
2021/10/17 05:56:44;;;;;;;1.17;1.05;;;;;;;25.39;44.59;100763.38;4916710;29;20028;-79
2021/10/17 05:59:10;;;;;;;1.70;1.10;;;;;;;25.33;44.83;100757.44;4916497;29;20044;-78
2021/10/17 06:01:36;;;;;;;1.75;1.10;;;;;;;25.30;44.80;100755.47;4916570;29;20024;-78
2021/10/17 06:04:02;;;;;;;2.22;1.20;;;;;;;25.24;45.11;100759.94;4915205;29;20107;-78
2021/10/17 06:06:28;;;;;;;3.10;1.58;;;;;;;25.30;44.92;100751.88;4916537;29;20107;-78
2021/10/17 06:08:56;;;;;;;2.20;1.52;;;;;;;25.40;44.57;100762.19;4916525;29;20110;-78
2021/10/17 06:11:22;;;;;;;1.55;1.20;;;;;;;25.37;44.66;100766.59;4916214;29;20035;-78
2021/10/17 06:13:48;;;;;;;2.50;1.25;;;;;;;25.36;44.52;100770.59;4916425;29;20056;-78
2021/10/17 06:16:14;;;;;;;2.20;1.30;;;;;;;25.29;45.30;100769.88;4916513;29;20547;-78
2021/10/17 06:18:39;;;;;;;1.23;1.13;;;;;;;25.33;45.10;100779.03;4916514;29;20395;-78
2021/10/17 06:21:07;;;;;;;2.53;1.52;;;;;;;25.37;45.10;100772.19;4916312;29;20024;-78
2021/10/17 06:23:33;;;;;;;1.30;1.10;;;;;;;25.41;44.98;100761.75;4916396;29;20519;-79
2021/10/17 06:25:59;;;;;;;2.10;1.50;;;;;;;25.38;45.00;100754.19;4915023;29;20050;-82
2021/10/17 06:28:25;;;;;;;2.72;1.33;;;;;;;25.36;44.88;100756.59;4916349;29;20475;-78
2021/10/17 06:30:51;;;;;;;1.48;1.10;;;;;;;25.29;44.98;100762.25;4915082;29;20028;-78
2021/10/17 06:33:16;;;;;;;2.80;1.25;;;;;;;25.37;44.75;100763.78;4916302;29;20530;-78
2021/10/17 06:35:42;;;;;;;5.43;1.40;;;;;;;25.36;45.12;100773.38;4916263;29;20028;-78
2021/10/17 06:38:08;;;;;;;2.33;1.42;;;;;;;25.39;44.96;100768.97;4916281;29;20077;-78
2021/10/17 06:40:34;;;;;;;2.60;1.10;;;;;;;25.40;44.66;100774.16;4916222;29;20518;-78
2021/10/17 06:42:59;;;;;;;0.80;0.80;;;;;;;25.46;44.63;100778.09;4916170;29;20503;-78
2021/10/17 06:45:25;;;;;;;2.55;1.13;;;;;;;25.48;44.94;100780.50;4916130;29;20042;-78
2021/10/17 06:47:51;;;;;;;1.50;1.20;;;;;;;25.48;44.79;100785.28;4914989;29;20176;-79
2021/10/17 06:50:20;;;;;;;1.45;1.27;;;;;;;25.44;44.50;100785.31;4916281;29;20110;-83
2021/10/17 06:52:47;;;;;;;1.92;1.13;;;;;;;25.39;44.82;100782.94;4916169;29;20502;-78
2021/10/17 06:55:13;;;;;;;2.53;1.38;;;;;;;25.41;44.92;100781.34;4916246;29;20111;-77
2021/10/17 06:57:38;;;;;;;1.50;1.10;;;;;;;25.38;44.78;100786.97;4915960;29;20168;-83
2021/10/17 07:00:05;;;;;;;2.35;1.10;;;;;;;25.38;44.97;100795.34;4915860;29;20046;-79
2021/10/17 07:02:30;;;;;;;3.90;1.33;;;;;;;25.39;45.04;100783.78;4916015;29;20028;-78
2021/10/17 07:04:56;;;;;;;2.88;1.38;;;;;;;25.43;45.01;100784.50;4915979;29;20103;-82
2021/10/17 07:07:22;;;;;;;2.08;1.23;;;;;;;25.38;45.17;100778.56;4916116;29;20052;-78
2021/10/17 07:09:47;;;;;;;2.10;0.90;;;;;;;25.40;44.91;100788.16;4916329;29;20039;-78
2021/10/17 07:12:13;;;;;;;4.40;1.27;;;;;;;25.35;44.83;100782.19;4916063;29;20027;-78
2021/10/17 07:14:39;;;;;;;1.80;1.08;;;;;;;25.32;44.98;100783.84;4916110;29;20103;-78
2021/10/17 07:17:04;;;;;;;3.58;1.33;;;;;;;25.35;45.06;100776.59;4914752;29;20465;-80
2021/10/17 07:19:30;;;;;;;1.80;1.15;;;;;;;25.42;44.72;100779.34;4915929;29;20404;-78
2021/10/17 07:21:55;;;;;;;0.98;0.90;;;;;;;25.38;44.94;100786.97;4913137;29;20024;-78
2021/10/17 07:24:21;;;;;;;1.88;0.98;;;;;;;25.38;45.38;100789.75;4906312;29;20043;-78
2021/10/17 07:26:47;;;;;;;1.55;1.05;;;;;;;25.48;45.24;100796.47;4919197;29;20499;-78
2021/10/17 07:29:12;;;;;;;0.77;0.70;;;;;;;25.43;45.17;100792.91;4919124;29;20106;-78
2021/10/17 07:31:38;;;;;;;1.27;0.73;;;;;;;25.45;44.95;100804.47;4917137;29;20099;-79
2021/10/17 07:34:03;;;;;;;2.30;1.05;;;;;;;25.48;45.11;100813.25;4903999;29;20060;-81
2021/10/17 07:36:29;;;;;;;2.20;1.05;;;;;;;25.52;44.90;100802.81;4903661;29;20622;-79
2021/10/17 07:38:54;;;;;;;0.80;0.80;;;;;;;25.57;44.90;100810.78;4903838;29;20040;-80
2021/10/17 07:41:20;;;;;;;3.38;1.25;;;;;;;25.57;45.02;100805.97;4915744;29;20059;-81
2021/10/17 07:43:46;;;;;;;1.88;1.10;;;;;;;25.63;44.80;100823.13;4919270;29;20483;-83
2021/10/17 07:46:12;;;;;;;2.15;1.30;;;;;;;25.64;45.06;100821.91;4917791;29;20036;-79
2021/10/17 07:48:41;;;;;;;2.78;1.15;;;;;;;25.66;45.26;100825.06;4918759;29;20039;-79
2021/10/17 07:51:07;;;;;;;4.20;1.50;;;;;;;25.48;45.71;100816.06;4918831;29;20031;-79
2021/10/17 07:53:32;;;;;;;1.92;1.05;;;;;;;25.63;45.23;100820.31;4919005;29;20103;-85
2021/10/17 07:55:58;;;;;;;3.35;1.10;;;;;;;25.67;45.10;100821.06;4919020;29;20156;-82
2021/10/17 07:58:25;;;;;;;3.95;1.40;;;;;;;25.68;45.01;100817.06;4918764;29;20511;-81
2021/10/17 08:00:51;;;;;;;1.33;1.00;;;;;;;25.65;45.28;100823.50;4918728;29;20024;-80
2021/10/17 08:03:17;;;;;;;1.45;0.90;;;;;;;25.67;45.10;100827.44;4911512;29;20024;-78
2021/10/17 08:05:42;;;;;;;1.42;1.02;;;;;;;25.62;45.51;100827.13;4915011;29;20487;-80
2021/10/17 08:08:08;;;;;;;1.83;1.30;;;;;;;25.70;45.12;100834.25;4911310;29;20020;-81
2021/10/17 08:10:34;;;;;;;1.35;1.17;;;;;;;25.67;45.19;100832.25;4918634;29;20028;-80
2021/10/17 08:13:01;;;;;;;1.48;1.00;;;;;;;25.58;45.45;100834.75;4918085;29;20039;-80
2021/10/17 08:15:28;;;;;;;1.92;1.20;;;;;;;25.61;45.62;100823.50;4918538;29;20025;-80
2021/10/17 08:17:57;;;;;;;1.35;1.00;;;;;;;25.64;45.61;100833.88;4918411;29;20031;-80
2021/10/17 08:20:22;;;;;;;3.63;1.58;;;;;;;25.65;45.61;100834.69;4915200;29;20043;-80
2021/10/17 08:22:48;;;;;;;3.55;1.25;;;;;;;25.62;45.53;100827.13;4917566;29;20024;-80
2021/10/17 08:25:14;;;;;;;4.50;1.52;;;;;;;25.62;45.64;100832.72;4916325;29;20364;-80
2021/10/17 08:27:41;;;;;;;1.70;1.10;;;;;;;25.71;45.20;100827.44;4917612;29;20024;-80
2021/10/17 08:30:08;;;;;;;2.38;1.27;;;;;;;25.66;45.32;100830.66;4918078;29;20099;-80
2021/10/17 08:32:34;;;;;;;2.00;1.20;;;;;;;25.73;45.25;100834.22;4918142;29;20099;-80
2021/10/17 08:34:59;;;;;;;2.10;1.23;;;;;;;25.76;45.27;100835.38;4917606;29;20032;-80
2021/10/17 08:37:25;;;;;;;2.28;1.30;;;;;;;25.67;45.59;100829.47;4917957;29;20064;-80
2021/10/17 08:39:51;;;;;;;2.67;1.45;;;;;;;25.77;45.06;100831.41;4918096;29;20055;-80
2021/10/17 08:42:17;;;;;;;1.77;1.20;;;;;;;25.89;45.03;100832.88;4916714;29;20032;-79
2021/10/17 08:44:42;;;;;;;2.53;1.20;;;;;;;25.90;45.01;100838.06;4917918;29;20103;-79
2021/10/17 08:47:09;;;;;;;3.17;1.60;;;;;;;25.87;44.99;100836.09;4917264;29;20170;-79
2021/10/17 08:49:35;;;;;;;3.60;1.33;;;;;;;25.92;44.97;100837.63;4901065;29;20455;-79
2021/10/17 08:52:01;;;;;;;1.55;1.40;;;;;;;25.96;44.75;100833.59;4916630;29;20059;-79
2021/10/17 08:54:26;;;;;;;7.22;2.30;;;;;;;25.90;45.00;100838.06;4917787;29;20495;-79
2021/10/17 08:56:53;;;;;;;3.40;2.30;;;;;;;25.93;45.09;100844.84;4917433;29;20112;-79
2021/10/17 08:59:18;;;;;;;4.95;2.47;;;;;;;25.92;45.07;100835.66;4915932;29;20384;-78
2021/10/17 09:01:44;;;;;;;4.78;3.10;;;;;;;25.91;45.00;100838.84;4916124;29;20096;-79
2021/10/17 09:04:13;;;;;;;2.83;1.92;;;;;;;25.90;45.13;100843.66;4916481;29;20036;-79
2021/10/17 09:06:39;;;;;;;2.53;1.93;;;;;;;25.96;44.95;100846.78;4917736;29;20025;-80
2021/10/17 09:09:21;;;;;;;3.28;2.17;;;;;;;25.88;45.02;100854.47;4915985;29;20043;-80
2021/10/17 09:11:49;;;;;;;3.33;2.03;;;;;;;25.79;45.27;100859.75;4917506;29;20024;-80
2021/10/17 09:14:17;;;;;;;3.10;2.10;;;;;;;25.59;45.70;100853.13;4917635;29;20035;-80
2021/10/17 09:16:45;;;;;;;5.45;2.78;;;;;;;25.78;45.16;100854.59;4916368;29;20118;-80
2021/10/17 09:19:17;;;;;;;6.88;3.33;;;;;;;25.75;45.32;100861.78;4917225;29;20047;-80
2021/10/17 09:21:57;;;;;;;3.42;2.50;;;;;;;25.81;45.15;100854.53;4914844;29;20039;-80
2021/10/17 09:24:27;;;;;;;9.23;3.47;;;;;;;25.96;44.57;100860.78;4916096;29;20028;-80
2021/10/17 09:27:06;;;;;;;;;;;;;;;25.61;45.29;100859.09;4917759;29;20032;-80
2021/10/17 09:29:34;;;;;;;4.90;2.53;;;;;;;25.82;45.05;100855.34;4917276;29;19922;-80
2021/10/17 09:32:00;;;;;;;7.35;2.90;;;;;;;25.90;44.61;100860.44;4917081;29;20032;-80
2021/10/17 09:34:29;;;;;;;5.35;2.60;;;;;;;25.95;45.07;100864.81;4917106;29;20032;-80
2021/10/17 09:37:09;;;;;;;4.85;2.55;;;;;;;26.02;45.05;100867.53;4917128;29;20560;-80
2021/10/17 09:39:38;;;;;;;4.03;2.78;;;;;;;25.97;45.13;100860.38;4915761;29;20032;-80
2021/10/17 09:42:05;;;;;;;4.77;3.30;;;;;;;26.10;44.75;100871.06;4916999;29;20095;-80
2021/10/17 09:44:38;;;;;;;3.70;2.20;;;;;;;26.06;44.89;100865.47;4915579;29;20028;-80
2021/10/17 09:47:04;;;;;;;12.77;8.63;;;;;;;26.08;44.76;100862.28;4916363;29;20479;-80
2021/10/17 09:49:30;;;;;;;2.17;1.35;;;;;;;26.20;44.65;100856.13;4917086;29;20031;-80
2021/10/17 09:52:13;;;;;;;3.92;2.15;;;;;;;26.17;44.40;100866.19;4916526;29;20092;-80
2021/10/17 09:54:40;;;;;;;4.05;1.48;;;;;;;26.26;44.34;100865.66;4916797;29;20032;-80
2021/10/17 09:57:06;;;;;;;4.53;1.58;;;;;;;26.41;44.16;100869.94;4915395;29;20047;-80
2021/10/17 09:59:34;;;;;;;2.92;1.58;;;;;;;26.45;44.14;100881.06;4916782;29;20028;-80
2021/10/17 10:02:00;;;;;;;2.90;1.50;;;;;;;26.43;43.92;100872.31;4916705;29;20395;-80
2021/10/17 10:04:28;;;;;;;2.90;1.50;;;;;;;26.39;44.41;100872.34;4916715;29;20056;-80
2021/10/17 10:06:55;;;;;;;3.28;1.65;;;;;;;26.52;43.80;100872.59;4916730;29;20028;-80
2021/10/17 10:09:24;;;;;;;3.40;1.48;;;;;;;26.65;43.60;100881.25;4915698;29;20115;-80
2021/10/17 10:11:50;;;;;;;1.95;1.00;;;;;;;26.59;43.67;100877.31;4916665;29;20452;-80
2021/10/17 10:14:17;;;;;;;2.30;1.20;;;;;;;26.63;43.65;100875.28;4916565;29;20103;-80
2021/10/17 10:16:43;;;;;;;2.55;1.20;;;;;;;26.42;43.64;100874.31;4916603;29;20072;-80
2021/10/17 10:19:13;;;;;;;1.83;1.00;;;;;;;26.35;43.56;100888.38;4915312;29;20035;-80
2021/10/17 10:21:39;;;;;;;1.52;0.90;;;;;;;26.41;43.57;100881.13;4916513;29;20028;-80
2021/10/17 10:24:11;;;;;;;2.75;1.38;;;;;;;26.60;42.85;100892.91;4916519;29;20042;-80
2021/10/17 10:26:39;;;;;;;2.38;1.35;;;;;;;26.69;42.95;100885.59;4916481;29;20111;-80
2021/10/17 10:29:05;;;;;;;2.67;0.80;;;;;;;26.68;42.86;100897.25;4916447;29;20036;-80
2021/10/17 10:31:47;;;;;;;1.77;1.00;;;;;;;26.72;42.50;100895.16;4915156;29;20028;-80
2021/10/17 10:34:35;;;;;;;1.92;0.95;;;;;;;26.58;42.52;100906.56;4916458;29;20024;-80
2021/10/17 10:37:24;;;;;;;1.70;1.10;;;;;;;26.73;42.14;100905.16;4916171;29;20029;-80
2021/10/17 10:40:06;;;;;;;2.45;1.27;;;;;;;26.75;42.36;100908.31;4915085;29;20088;-80
2021/10/17 10:42:37;;;;;;;3.60;1.77;;;;;;;26.69;42.17;100904.44;4916315;29;20036;-80
2021/10/17 10:45:23;;;;;;;2.50;1.10;;;;;;;26.79;42.12;100900.69;4916262;29;20032;-80
2021/10/17 10:48:11;;;;;;;3.25;1.60;;;;;;;26.60;42.37;100901.31;4915053;29;20039;-80
2021/10/17 10:50:40;;;;;;;3.20;1.25;;;;;;;26.75;42.03;100911.97;4914934;29;20495;-80
2021/10/17 10:53:06;;;;;;;3.45;1.60;;;;;;;26.83;42.05;100907.06;4916301;29;20036;-81
2021/10/17 10:55:47;;;;;;;4.13;1.95;;;;;;;26.55;42.40;100920.19;4916351;29;20102;-80
2021/10/17 10:58:24;;;;;;;2.78;1.90;;;;;;;26.69;42.12;100915.63;4918002;29;20048;-80
2021/10/17 11:00:55;;;;;;;2.85;2.08;;;;;;;26.86;41.92;100911.81;4920070;29;20072;-80
2021/10/17 11:03:24;;;;;;;2.90;2.00;;;;;;;26.80;42.25;100917.06;4919831;29;20028;-80
2021/10/17 11:06:22;;;;;;;3.33;2.22;;;;;;;26.90;42.19;100920.94;4919936;29;20033;-80
2021/10/17 11:09:23;;;;;;;2.90;1.98;;;;;;;26.70;42.02;100911.63;4907974;29;20115;-79
2021/10/17 11:11:48;;;;;;;3.50;2.03;;;;;;;27.05;42.18;100914.00;4919723;29;20507;-80
2021/10/17 11:14:15;;;;;;;2.65;1.75;;;;;;;26.98;42.58;100914.06;4919805;29;20047;-80
2021/10/17 11:16:42;;;;;;;6.40;2.65;;;;;;;27.16;42.02;100925.03;4918314;29;20518;-79
2021/10/17 11:19:08;;;;;;;5.13;2.55;;;;;;;27.17;41.56;100917.44;4919501;29;20036;-79
2021/10/17 11:21:34;;;;;;;3.55;1.98;;;;;;;27.13;41.46;100925.91;4918202;29;20028;-80
2021/10/17 11:24:00;;;;;;;2.40;1.92;;;;;;;27.14;41.16;100930.28;4919376;29;20031;-80
2021/10/17 11:26:26;;;;;;;8.02;2.20;;;;;;;26.52;42.45;100925.81;4919477;29;20032;-80